Time;durP1;ratioP1;P1;durP2;ratioP2;P2;SDS_P1;SDS_P2;PMS_P1;PMS_P2;Temp;Humidity;BMP_temperature;BMP_pressure;BME280_temperature;BME280_humidity;BME280_pressure;Samples;Min_cycle;Max_cycle;Signal;HPM_P1;HPM_P2
2023/06/13 00:00:57;;;;;;;6.75;4.00;;;;;;;;;;5153766;27;20379;-76
2023/06/13 00:03:23;;;;;;;12.85;3.97;;;;;;;;;;5153832;27;20043;-75
2023/06/13 00:05:51;;;;;;;8.10;3.90;;;;;;;;;;5134450;27;20105;-76
2023/06/13 00:08:21;;;;;;;7.72;4.38;;;;;;;;;;5153356;27;20094;-75
2023/06/13 00:10:51;;;;;;;9.63;4.47;;;;;;;;;;5153731;27;20089;-76
2023/06/13 00:13:18;;;;;;;10.10;3.97;;;;;;;;;;5135220;27;20061;-76
2023/06/13 00:15:49;;;;;;;8.15;4.03;;;;;;;;;;5151503;27;20051;-76
2023/06/13 00:18:16;;;;;;;6.35;4.20;;;;;;;;;;5153465;27;20049;-76
2023/06/13 00:20:44;;;;;;;7.85;4.00;;;;;;;;;;5135095;27;20390;-77
2023/06/13 00:23:10;;;;;;;7.07;4.05;;;;;;;;;;5135132;27;20061;-76
2023/06/13 00:25:36;;;;;;;7.57;3.97;;;;;;;;;;5153702;27;20147;-76
2023/06/13 00:28:02;;;;;;;6.25;4.00;;;;;;;;;;5117818;27;20058;-76
2023/06/13 00:30:28;;;;;;;9.98;3.88;;;;;;;;;;5134752;27;20126;-76
2023/06/13 00:32:54;;;;;;;7.70;3.92;;;;;;;;;;5117772;27;20031;-76
2023/06/13 00:35:21;;;;;;;5.70;4.07;;;;;;;;;;5153379;27;20130;-76
2023/06/13 00:37:54;;;;;;;10.88;4.22;;;;;;;;;;5153949;27;20049;-76
2023/06/13 00:40:23;;;;;;;7.40;4.13;;;;;;;;;;5134873;27;20339;-76
2023/06/13 00:42:53;;;;;;;7.60;4.10;;;;;;;;;;5153645;27;20067;-76
2023/06/13 00:45:26;;;;;;;10.63;4.43;;;;;;;;;;5153294;27;20085;-76
2023/06/13 00:47:54;;;;;;;5.95;4.20;;;;;;;;;;5153690;27;20034;-76
2023/06/13 00:50:21;;;;;;;12.60;4.55;;;;;;;;;;5153055;27;20077;-76
2023/06/13 00:52:48;;;;;;;9.73;4.63;;;;;;;;;;5136856;27;20047;-76
2023/06/13 00:55:14;;;;;;;10.23;4.70;;;;;;;;;;5157254;27;20035;-77
2023/06/13 00:57:41;;;;;;;8.13;4.80;;;;;;;;;;5157102;27;20065;-76
2023/06/13 01:00:07;;;;;;;8.90;4.47;;;;;;;;;;5156832;27;20090;-77
2023/06/13 01:02:33;;;;;;;8.30;4.68;;;;;;;;;;5157438;27;20062;-76
2023/06/13 01:05:03;;;;;;;10.43;4.72;;;;;;;;;;5156786;27;20074;-77
2023/06/13 01:07:33;;;;;;;9.90;4.95;;;;;;;;;;5157032;27;20054;-77
2023/06/13 01:09:59;;;;;;;6.53;4.70;;;;;;;;;;5156415;27;20051;-76
2023/06/13 01:12:43;;;;;;;10.70;4.50;;;;;;;;;;5157018;27;20039;-77
2023/06/13 01:15:11;;;;;;;10.48;4.18;;;;;;;;;;5138151;27;20503;-77
2023/06/13 01:17:41;;;;;;;7.68;4.60;;;;;;;;;;5121244;27;20082;-77
2023/06/13 01:20:14;;;;;;;11.75;4.30;;;;;;;;;;5156382;27;20077;-77
2023/06/13 01:22:45;;;;;;;7.30;3.90;;;;;;;;;;5156898;27;20068;-77
2023/06/13 01:25:20;;;;;;;7.00;4.05;;;;;;;;;;5156554;27;20119;-77
2023/06/13 01:27:49;;;;;;;;;;;;;;;;;;5157218;27;20042;-77
2023/06/13 01:30:15;;;;;;;10.23;4.28;;;;;;;;;;5155866;27;20006;-76
2023/06/13 01:32:42;;;;;;;8.05;4.00;;;;;;;;;;5138138;27;20134;-76
2023/06/13 01:35:09;;;;;;;8.35;4.35;;;;;;;;;;5137854;27;20034;-76
2023/06/13 01:37:35;;;;;;;7.40;4.10;;;;;;;;;;5138111;27;20046;-75
2023/06/13 01:40:03;;;;;;;7.93;4.55;;;;;;;;;;5126148;27;20040;-75
2023/06/13 01:42:29;;;;;;;8.50;4.18;;;;;;;;;;5135923;27;20047;-75
2023/06/13 01:44:56;;;;;;;8.75;4.10;;;;;;;;;;5115545;27;20403;-76
2023/06/13 01:47:33;;;;;;;7.25;4.25;;;;;;;;;;5135153;27;20043;-75
2023/06/13 01:50:08;;;;;;;8.95;4.63;;;;;;;;;;5135135;27;20043;-76
2023/06/13 01:52:42;;;;;;;9.38;4.03;;;;;;;;;;5135350;27;20043;-75
2023/06/13 01:55:17;;;;;;;9.03;4.90;;;;;;;;;;5135463;27;20130;-75
2023/06/13 01:57:51;;;;;;;9.07;4.43;;;;;;;;;;5135239;27;20273;-76
2023/06/13 02:00:18;;;;;;;6.90;4.37;;;;;;;;;;5133681;27;20051;-76
2023/06/13 02:02:44;;;;;;;7.35;4.53;;;;;;;;;;5134574;27;20055;-76
2023/06/13 02:05:11;;;;;;;10.00;5.03;;;;;;;;;;5133793;27;20092;-75
2023/06/13 02:07:38;;;;;;;8.00;4.68;;;;;;;;;;5135338;27;20051;-75
2023/06/13 02:10:05;;;;;;;6.97;4.47;;;;;;;;;;5151746;27;20046;-75
2023/06/13 02:12:31;;;;;;;9.35;4.80;;;;;;;;;;5155808;27;20114;-75
2023/06/13 02:14:59;;;;;;;8.23;4.63;;;;;;;;;;5155207;27;20091;-75
2023/06/13 02:17:26;;;;;;;8.55;4.65;;;;;;;;;;5137279;27;20074;-75
2023/06/13 02:19:52;;;;;;;7.57;4.80;;;;;;;;;;5155135;27;20406;-76
2023/06/13 02:22:19;;;;;;;11.30;4.50;;;;;;;;;;5136828;27;20078;-75
2023/06/13 02:24:47;;;;;;;9.38;4.60;;;;;;;;;;5155383;27;20414;-76
2023/06/13 02:27:13;;;;;;;9.63;4.63;;;;;;;;;;5136973;27;20039;-76
2023/06/13 02:29:39;;;;;;;8.15;4.72;;;;;;;;;;5155340;27;20042;-76
2023/06/13 02:32:06;;;;;;;9.23;4.75;;;;;;;;;;5155287;27;20085;-76
2023/06/13 02:34:32;;;;;;;8.57;4.70;;;;;;;;;;5155021;27;20043;-76
2023/06/13 02:36:58;;;;;;;8.77;4.70;;;;;;;;;;5155031;27;20106;-76
2023/06/13 02:39:24;;;;;;;9.77;4.13;;;;;;;;;;5154961;27;20401;-76
2023/06/13 02:41:50;;;;;;;10.48;4.40;;;;;;;;;;5153860;27;20038;-77
2023/06/13 02:44:16;;;;;;;8.73;4.18;;;;;;;;;;5154374;27;20178;-77
2023/06/13 02:46:42;;;;;;;8.43;4.00;;;;;;;;;;5155118;27;20402;-76
2023/06/13 02:49:09;;;;;;;8.95;4.22;;;;;;;;;;5154772;27;20121;-76
2023/06/13 02:51:35;;;;;;;7.47;4.03;;;;;;;;;;5154613;27;20039;-76
2023/06/13 02:54:01;;;;;;;8.40;4.18;;;;;;;;;;5154717;27;20039;-76
2023/06/13 02:56:29;;;;;;;7.30;4.05;;;;;;;;;;5154821;27;20134;-75
2023/06/13 02:58:55;;;;;;;9.93;4.35;;;;;;;;;;5154581;27;20054;-75
2023/06/13 03:01:21;;;;;;;7.22;4.13;;;;;;;;;;5135897;27;20049;-75
2023/06/13 03:03:47;;;;;;;5.60;3.85;;;;;;;;;;5154650;27;20394;-76
2023/06/13 03:06:17;;;;;;;8.90;4.50;;;;;;;;;;5154615;27;20407;-75
2023/06/13 03:08:44;;;;;;;9.88;4.60;;;;;;;;;;5154076;27;20062;-75
2023/06/13 03:11:12;;;;;;;5.47;3.80;;;;;;;;;;5154348;27;20042;-75
2023/06/13 03:13:38;;;;;;;7.05;4.20;;;;;;;;;;5154519;27;20480;-75
2023/06/13 03:16:06;;;;;;;10.05;4.50;;;;;;;;;;5152673;27;20121;-75
2023/06/13 03:18:34;;;;;;;6.15;4.20;;;;;;;;;;5152051;27;20043;-75
2023/06/13 03:21:00;;;;;;;8.43;3.92;;;;;;;;;;5152933;27;20118;-75
2023/06/13 03:23:26;;;;;;;9.90;4.30;;;;;;;;;;5154470;27;20045;-75
2023/06/13 03:25:52;;;;;;;8.88;3.78;;;;;;;;;;5135648;27;20055;-75
2023/06/13 03:28:19;;;;;;;6.55;4.03;;;;;;;;;;5153628;27;20504;-74
2023/06/13 03:30:45;;;;;;;6.82;3.78;;;;;;;;;;5151442;27;20039;-75
2023/06/13 03:33:11;;;;;;;9.52;4.30;;;;;;;;;;5152245;27;20046;-75
2023/06/13 03:35:38;;;;;;;7.03;4.10;;;;;;;;;;5154033;27;20050;-75
2023/06/13 03:38:04;;;;;;;7.32;4.32;;;;;;;;;;5154308;27;20054;-75
2023/06/13 03:40:32;;;;;;;7.93;4.22;;;;;;;;;;5153574;27;20498;-75
2023/06/13 03:42:58;;;;;;;6.90;3.95;;;;;;;;;;5154142;27;20107;-76
2023/06/13 03:45:25;;;;;;;6.95;3.63;;;;;;;;;;5153873;27;20138;-75
2023/06/13 03:47:51;;;;;;;6.78;4.38;;;;;;;;;;5154072;27;20407;-75
2023/06/13 03:50:17;;;;;;;8.20;4.40;;;;;;;;;;5153539;27;20372;-76
2023/06/13 03:52:43;;;;;;;6.57;4.03;;;;;;;;;;5153856;27;20041;-76
2023/06/13 03:55:11;;;;;;;11.75;4.25;;;;;;;;;;5154008;27;20042;-75
2023/06/13 03:57:37;;;;;;;8.15;3.95;;;;;;;;;;5135745;27;20030;-76
2023/06/13 04:00:07;;;;;;;9.15;4.18;;;;;;;;;;5153617;27;20050;-75
2023/06/13 04:02:34;;;;;;;7.70;4.00;;;;;;;;;;5153861;27;20046;-75
2023/06/13 04:05:00;;;;;;;7.82;4.03;;;;;;;;;;5134876;27;20046;-75
2023/06/13 04:07:27;;;;;;;8.07;4.30;;;;;;;;;;5153550;27;20137;-76
2023/06/13 04:09:53;;;;;;;5.55;3.78;;;;;;;;;;5153204;27;20517;-76
2023/06/13 04:12:20;;;;;;;7.65;4.03;;;;;;;;;;5135344;27;20058;-76
2023/06/13 04:14:46;;;;;;;7.03;3.90;;;;;;;;;;5153369;27;20042;-76
2023/06/13 04:17:12;;;;;;;5.82;4.00;;;;;;;;;;5153863;27;20096;-76
2023/06/13 04:19:39;;;;;;;10.40;4.30;;;;;;;;;;5135077;27;20038;-76
2023/06/13 04:22:05;;;;;;;8.07;4.03;;;;;;;;;;5153519;27;20517;-76
2023/06/13 04:24:32;;;;;;;7.75;4.70;;;;;;;;;;5153414;27;20039;-76
2023/06/13 04:27:03;;;;;;;8.35;3.92;;;;;;;;;;5154237;27;20070;-76
2023/06/13 04:29:30;;;;;;;8.15;4.35;;;;;;;;;;5157515;27;20095;-76
2023/06/13 04:31:56;;;;;;;6.93;4.28;;;;;;;;;;5157449;27;20047;-76
2023/06/13 04:34:24;;;;;;;8.88;4.22;;;;;;;;;;5156691;27;20276;-76
2023/06/13 04:36:55;;;;;;;7.85;4.53;;;;;;;;;;5137335;27;20139;-77
2023/06/13 04:39:24;;;;;;;8.18;4.25;;;;;;;;;;5155621;27;20039;-76
2023/06/13 04:41:55;;;;;;;7.00;4.40;;;;;;;;;;5156869;27;20046;-76
2023/06/13 04:44:25;;;;;;;8.10;4.35;;;;;;;;;;5138969;27;20051;-76
2023/06/13 04:47:01;;;;;;;8.73;4.20;;;;;;;;;;5157261;27;20454;-77
2023/06/13 04:49:27;;;;;;;7.75;4.75;;;;;;;;;;5157302;27;20054;-76
2023/06/13 04:51:54;;;;;;;12.45;4.40;;;;;;;;;;5157209;27;20043;-76
2023/06/13 04:54:21;;;;;;;6.65;4.10;;;;;;;;;;5157179;27;20046;-76
2023/06/13 04:56:49;;;;;;;6.07;4.00;;;;;;;;;;5138632;27;20050;-77
2023/06/13 04:59:15;;;;;;;6.20;3.83;;;;;;;;;;5156922;27;20047;-77
2023/06/13 05:01:43;;;;;;;9.43;4.15;;;;;;;;;;5138533;27;20129;-76
2023/06/13 05:04:10;;;;;;;10.70;3.97;;;;;;;;;;5157064;27;20042;-76
2023/06/13 05:06:37;;;;;;;6.78;4.00;;;;;;;;;;5156254;27;20046;-77
2023/06/13 05:09:05;;;;;;;7.07;3.78;;;;;;;;;;5155733;27;20086;-76
2023/06/13 05:11:31;;;;;;;11.07;4.05;;;;;;;;;;5156562;27;20043;-76
2023/06/13 05:13:57;;;;;;;6.53;4.00;;;;;;;;;;5156816;27;20043;-75
2023/06/13 05:16:29;;;;;;;7.72;3.90;;;;;;;;;;5154589;27;20047;-76
2023/06/13 05:19:00;;;;;;;8.25;3.75;;;;;;;;;;5156669;27;20035;-76
2023/06/13 05:21:28;;;;;;;4.90;3.38;;;;;;;;;;5156632;27;20414;-76
2023/06/13 05:23:54;;;;;;;8.82;3.50;;;;;;;;;;5137734;27;20039;-76
2023/06/13 05:26:21;;;;;;;6.43;3.63;;;;;;;;;;5155832;27;20042;-77
2023/06/13 05:28:47;;;;;;;6.00;3.60;;;;;;;;;;5137264;27;20504;-77
2023/06/13 05:31:14;;;;;;;9.55;3.70;;;;;;;;;;5156044;27;20068;-76
2023/06/13 05:33:40;;;;;;;7.43;3.45;;;;;;;;;;5156054;27;20062;-76
2023/06/13 05:36:06;;;;;;;7.97;3.60;;;;;;;;;;5136595;27;20051;-77
2023/06/13 05:38:32;;;;;;;7.97;3.30;;;;;;;;;;5155771;27;20043;-77
2023/06/13 05:40:59;;;;;;;7.63;3.17;;;;;;;;;;5156140;27;20551;-77
2023/06/13 05:43:25;;;;;;;4.88;3.17;;;;;;;;;;5137665;27;20085;-76
2023/06/13 05:45:51;;;;;;;9.55;3.10;;;;;;;;;;5156126;27;20043;-77
2023/06/13 05:48:17;;;;;;;5.63;3.10;;;;;;;;;;5137902;27;20074;-77
2023/06/13 05:50:43;;;;;;;6.50;3.30;;;;;;;;;;5155771;27;20049;-77
2023/06/13 05:53:10;;;;;;;9.88;3.35;;;;;;;;;;5156101;27;20066;-77
2023/06/13 05:55:36;;;;;;;8.13;3.35;;;;;;;;;;5155846;27;20039;-77
2023/06/13 05:58:02;;;;;;;4.97;3.40;;;;;;;;;;5155795;27;20046;-77
2023/06/13 06:00:29;;;;;;;8.85;3.67;;;;;;;;;;5155581;27;20039;-77
2023/06/13 06:02:55;;;;;;;10.70;3.45;;;;;;;;;;5156086;27;20047;-76
2023/06/13 06:05:21;;;;;;;8.07;3.33;;;;;;;;;;5155898;27;20065;-76
2023/06/13 06:07:47;;;;;;;6.35;3.80;;;;;;;;;;5155651;27;20066;-77
2023/06/13 06:10:14;;;;;;;7.53;3.70;;;;;;;;;;5155137;27;20133;-77
2023/06/13 06:12:40;;;;;;;6.38;4.45;;;;;;;;;;5119824;27;20084;-77
2023/06/13 06:15:06;;;;;;;10.70;4.78;;;;;;;;;;5135027;27;20470;-77
2023/06/13 06:17:32;;;;;;;8.88;3.85;;;;;;;;;;5137421;27;20066;-77
2023/06/13 06:19:58;;;;;;;8.38;3.60;;;;;;;;;;5136679;27;20042;-76
2023/06/13 06:22:24;;;;;;;7.80;3.75;;;;;;;;;;5155763;27;20043;-76
2023/06/13 06:24:51;;;;;;;4.40;2.90;;;;;;;;;;5155311;27;20089;-77
2023/06/13 06:27:17;;;;;;;8.40;3.20;;;;;;;;;;5137097;27;20129;-77
2023/06/13 06:29:43;;;;;;;4.57;2.90;;;;;;;;;;5136465;27;20099;-76
2023/06/13 06:32:10;;;;;;;6.57;3.40;;;;;;;;;;5134521;27;20085;-77
2023/06/13 06:34:36;;;;;;;6.47;3.20;;;;;;;;;;5136762;27;20042;-77
2023/06/13 06:37:03;;;;;;;7.25;2.92;;;;;;;;;;5119807;27;20340;-77
2023/06/13 06:39:30;;;;;;;8.55;2.95;;;;;;;;;;5154832;27;20095;-77
2023/06/13 06:41:56;;;;;;;6.38;2.92;;;;;;;;;;5155098;27;20034;-76
2023/06/13 06:44:22;;;;;;;7.22;2.95;;;;;;;;;;5153655;27;20054;-77
2023/06/13 06:46:48;;;;;;;6.07;3.03;;;;;;;;;;5152515;27;20125;-77
2023/06/13 06:49:16;;;;;;;5.43;3.60;;;;;;;;;;5134223;27;20042;-76
2023/06/13 06:51:42;;;;;;;5.80;3.33;;;;;;;;;;5154413;27;20302;-77
2023/06/13 06:54:09;;;;;;;9.88;2.72;;;;;;;;;;5154670;27;20039;-77
2023/06/13 06:56:35;;;;;;;7.72;2.80;;;;;;;;;;5154635;27;20043;-77
2023/06/13 06:59:01;;;;;;;5.00;2.75;;;;;;;;;;5135876;27;20043;-76
2023/06/13 07:01:27;;;;;;;4.45;2.42;;;;;;;;;;5154309;27;20130;-77
2023/06/13 07:03:53;;;;;;;4.18;2.40;;;;;;;;;;5154412;27;20054;-77
2023/06/13 07:06:19;;;;;;;5.22;2.65;;;;;;;;;;5154802;27;20078;-77
2023/06/13 07:08:45;;;;;;;6.20;2.70;;;;;;;;;;5135460;27;20069;-75
2023/06/13 07:11:12;;;;;;;6.35;2.70;;;;;;;;;;5154101;27;20138;-76
2023/06/13 07:13:38;;;;;;;7.43;2.75;;;;;;;;;;5154401;27;20442;-76
2023/06/13 07:16:05;;;;;;;4.57;2.50;;;;;;;;;;5135545;27;20055;-75
2023/06/13 07:18:31;;;;;;;5.47;2.72;;;;;;;;;;5136168;27;20047;-75
2023/06/13 07:20:57;;;;;;;6.82;2.80;;;;;;;;;;5135448;27;20050;-76
2023/06/13 07:23:23;;;;;;;5.60;2.67;;;;;;;;;;5154272;27;20418;-76
2023/06/13 07:25:49;;;;;;;4.88;2.65;;;;;;;;;;5154435;27;20046;-76
2023/06/13 07:28:15;;;;;;;3.78;2.60;;;;;;;;;;5154437;27;20117;-76
2023/06/13 07:30:41;;;;;;;5.95;3.00;;;;;;;;;;5135209;27;20038;-76
2023/06/13 07:33:08;;;;;;;5.93;3.08;;;;;;;;;;5154084;27;20044;-76
2023/06/13 07:35:34;;;;;;;4.50;2.75;;;;;;;;;;5135741;27;20390;-76
2023/06/13 07:38:00;;;;;;;5.65;2.58;;;;;;;;;;5154023;27;20050;-76
2023/06/13 07:40:26;;;;;;;4.97;2.78;;;;;;;;;;5120562;27;20122;-76
2023/06/13 07:42:53;;;;;;;5.20;2.83;;;;;;;;;;5114955;27;20130;-77
2023/06/13 07:45:19;;;;;;;6.47;2.88;;;;;;;;;;5112059;27;20035;-75
2023/06/13 07:47:45;;;;;;;6.82;2.97;;;;;;;;;;5096292;28;20046;-75
2023/06/13 07:50:11;;;;;;;3.80;2.72;;;;;;;;;;5131854;27;20537;-76
2023/06/13 07:52:37;;;;;;;6.32;3.00;;;;;;;;;;5132085;27;20043;-77
2023/06/13 07:55:04;;;;;;;7.93;2.90;;;;;;;;;;5133158;27;20114;-77
2023/06/13 07:57:30;;;;;;;6.47;3.00;;;;;;;;;;5133432;28;20047;-77
2023/06/13 07:59:56;;;;;;;7.30;2.92;;;;;;;;;;5132772;28;20087;-77
2023/06/13 08:02:26;;;;;;;6.45;2.83;;;;;;;;;;5116102;27;20049;-76
2023/06/13 08:04:52;;;;;;;7.45;3.15;;;;;;;;;;5137498;27;20062;-77
2023/06/13 08:07:18;;;;;;;5.53;2.78;;;;;;;;;;5137266;27;20496;-77
2023/06/13 08:09:44;;;;;;;7.82;2.97;;;;;;;;;;5129193;27;20057;-77
2023/06/13 08:12:11;;;;;;;5.53;3.10;;;;;;;;;;5136609;27;20050;-77
2023/06/13 08:14:37;;;;;;;8.52;2.90;;;;;;;;;;5134428;27;20061;-77
2023/06/13 08:17:03;;;;;;;10.38;3.20;;;;;;;;;;5136985;27;20157;-77
2023/06/13 08:19:29;;;;;;;6.10;3.10;;;;;;;;;;5137094;27;20045;-77
2023/06/13 08:21:56;;;;;;;8.57;3.20;;;;;;;;;;5136984;27;20043;-77
2023/06/13 08:24:22;;;;;;;6.72;2.97;;;;;;;;;;5135190;27;20039;-77
2023/06/13 08:26:49;;;;;;;7.25;3.25;;;;;;;;;;5134401;27;20093;-77
2023/06/13 08:29:17;;;;;;;7.75;3.10;;;;;;;;;;5117045;27;20041;-77
2023/06/13 08:31:44;;;;;;;6.28;2.70;;;;;;;;;;5118242;27;20456;-76
2023/06/13 08:34:10;;;;;;;8.27;3.03;;;;;;;;;;5135632;27;20043;-77
2023/06/13 08:36:36;;;;;;;6.38;3.22;;;;;;;;;;5137205;27;20097;-76
2023/06/13 08:39:06;;;;;;;6.43;2.92;;;;;;;;;;5139036;27;20087;-75
2023/06/13 08:41:33;;;;;;;8.98;3.22;;;;;;;;;;5157330;27;20055;-76
2023/06/13 08:43:59;;;;;;;5.93;3.10;;;;;;;;;;5157359;27;20039;-76
2023/06/13 08:46:25;;;;;;;5.63;3.20;;;;;;;;;;5157099;27;20083;-76
2023/06/13 08:48:52;;;;;;;7.40;3.10;;;;;;;;;;5119744;27;20448;-76
2023/06/13 08:51:19;;;;;;;6.40;3.25;;;;;;;;;;5156763;27;20125;-77
2023/06/13 08:53:51;;;;;;;5.13;3.17;;;;;;;;;;5157404;27;20168;-77
2023/06/13 08:56:20;;;;;;;5.03;3.00;;;;;;;;;;5138577;27;20121;-77
2023/06/13 08:58:50;;;;;;;8.35;3.20;;;;;;;;;;5157159;27;20333;-77
2023/06/13 09:01:17;;;;;;;8.20;3.38;;;;;;;;;;5155217;27;20039;-77
2023/06/13 09:03:43;;;;;;;6.00;3.03;;;;;;;;;;5156913;27;20119;-76
2023/06/13 09:06:11;;;;;;;6.72;3.10;;;;;;;;;;5157207;27;20038;-76
2023/06/13 09:08:37;;;;;;;5.50;3.17;;;;;;;;;;5156532;27;20051;-77
2023/06/13 09:11:04;;;;;;;4.18;2.92;;;;;;;;;;5156684;27;20050;-77
2023/06/13 09:13:30;;;;;;;7.63;3.20;;;;;;;;;;5137775;27;20390;-77
2023/06/13 09:15:56;;;;;;;5.28;3.42;;;;;;;;;;5157083;27;20050;-77
2023/06/13 09:18:23;;;;;;;7.15;3.05;;;;;;;;;;5156774;27;20243;-77
2023/06/13 09:20:49;;;;;;;8.55;3.10;;;;;;;;;;5154990;27;20046;-77
2023/06/13 09:23:18;;;;;;;6.47;3.28;;;;;;;;;;5156140;27;20042;-77
2023/06/13 09:25:46;;;;;;;4.95;3.30;;;;;;;;;;5156523;27;20324;-78
2023/06/13 09:28:30;;;;;;;8.60;3.20;;;;;;;;;;5138176;27;20042;-77
2023/06/13 09:30:57;;;;;;;8.50;3.40;;;;;;;;;;5156548;27;20078;-77
2023/06/13 09:33:23;;;;;;;6.80;3.00;;;;;;;;;;5156863;27;20047;-78
2023/06/13 09:35:52;;;;;;;5.15;3.20;;;;;;;;;;5156502;27;20083;-77
2023/06/13 09:38:26;;;;;;;6.72;3.03;;;;;;;;;;5138043;27;20100;-76
2023/06/13 09:40:55;;;;;;;5.68;3.28;;;;;;;;;;5137429;27;20043;-76
2023/06/13 09:43:22;;;;;;;5.00;2.90;;;;;;;;;;5134354;27;20480;-76
2023/06/13 09:45:49;;;;;;;6.03;3.00;;;;;;;;;;5135561;27;20043;-77
2023/06/13 09:48:15;;;;;;;5.82;2.88;;;;;;;;;;5135257;27;20492;-76
2023/06/13 09:50:42;;;;;;;5.25;2.97;;;;;;;;;;5135138;27;20039;-77
2023/06/13 09:53:08;;;;;;;7.03;2.90;;;;;;;;;;5117305;27;20058;-77
2023/06/13 09:55:35;;;;;;;7.80;3.03;;;;;;;;;;5135014;27;20050;-77
2023/06/13 09:58:02;;;;;;;5.45;2.90;;;;;;;;;;5135447;27;20043;-78
2023/06/13 10:00:28;;;;;;;4.70;2.88;;;;;;;;;;5134916;27;20047;-76
2023/06/13 10:02:54;;;;;;;6.10;3.08;;;;;;;;;;5135056;27;20130;-77
2023/06/13 10:05:21;;;;;;;5.70;2.80;;;;;;;;;;5134841;27;20046;-76
2023/06/13 10:07:47;;;;;;;5.07;2.67;;;;;;;;;;5133360;27;20143;-76
2023/06/13 10:10:13;;;;;;;7.18;2.90;;;;;;;;;;5152725;27;20126;-77
2023/06/13 10:12:45;;;;;;;5.47;2.88;;;;;;;;;;5153809;27;20042;-77
2023/06/13 10:15:13;;;;;;;10.38;2.80;;;;;;;;;;5155705;27;20043;-77
2023/06/13 10:17:41;;;;;;;5.63;2.92;;;;;;;;;;5155863;27;20043;-77
2023/06/13 10:20:10;;;;;;;5.25;2.95;;;;;;;;;;5119584;27;20069;-76
2023/06/13 10:22:37;;;;;;;4.70;2.80;;;;;;;;;;5155744;27;20033;-76
2023/06/13 10:25:03;;;;;;;5.88;2.80;;;;;;;;;;5154283;27;20174;-77
2023/06/13 10:27:29;;;;;;;9.35;2.92;;;;;;;;;;5153655;27;20035;-77
2023/06/13 10:29:58;;;;;;;6.03;2.80;;;;;;;;;;5155390;27;20083;-77
2023/06/13 10:32:27;;;;;;;7.50;2.90;;;;;;;;;;5155518;27;20051;-76
2023/06/13 10:35:08;;;;;;;10.02;2.80;;;;;;;;;;5136423;27;20039;-77
2023/06/13 10:37:53;;;;;;;6.38;2.92;;;;;;;;;;5155351;27;20091;-77
2023/06/13 10:40:28;;;;;;;4.93;2.90;;;;;;;;;;5155119;27;20049;-77
2023/06/13 10:43:05;;;;;;;5.57;3.15;;;;;;;;;;5155511;27;20417;-78
2023/06/13 10:45:31;;;;;;;5.07;2.72;;;;;;;;;;5155325;27;20038;-78
2023/06/13 10:48:04;;;;;;;7.80;2.88;;;;;;;;;;5154934;27;20402;-78
2023/06/13 10:50:36;;;;;;;8.13;2.92;;;;;;;;;;5136216;27;20421;-78
2023/06/13 10:53:02;;;;;;;6.80;2.70;;;;;;;;;;5135015;27;20065;-79
2023/06/13 10:55:29;;;;;;;4.07;2.70;;;;;;;;;;5153930;27;20035;-78
2023/06/13 10:57:56;;;;;;;6.47;2.70;;;;;;;;;;5155125;27;20053;-78
2023/06/13 11:00:33;;;;;;;6.25;2.40;;;;;;;;;;5154916;27;20118;-79
2023/06/13 11:03:00;;;;;;;6.32;2.80;;;;;;;;;;5154807;27;20088;-77
2023/06/13 11:05:26;;;;;;;4.30;2.65;;;;;;;;;;5154797;27;20047;-77
2023/06/13 11:07:55;;;;;;;6.65;2.63;;;;;;;;;;5154733;27;20065;-77
2023/06/13 11:10:22;;;;;;;5.80;2.58;;;;;;;;;;5154350;27;20122;-77
2023/06/13 11:12:49;;;;;;;4.53;2.40;;;;;;;;;;5153383;27;20115;-77
2023/06/13 11:15:25;;;;;;;5.80;2.75;;;;;;;;;;5154002;27;20039;-78
2023/06/13 11:18:07;;;;;;;5.32;2.40;;;;;;;;;;5154644;27;20082;-77
2023/06/13 11:20:34;;;;;;;6.05;2.60;;;;;;;;;;5154378;27;20421;-78
2023/06/13 11:23:01;;;;;;;8.48;2.22;;;;;;;;;;5154394;27;20134;-77
2023/06/13 11:25:29;;;;;;;5.97;2.70;;;;;;;;;;5154155;27;20425;-78
2023/06/13 11:27:55;;;;;;;4.03;2.25;;;;;;;;;;5154046;27;20038;-78
2023/06/13 11:30:22;;;;;;;6.75;2.10;;;;;;;;;;5154223;27;20038;-77
2023/06/13 11:32:48;;;;;;;5.90;2.33;;;;;;;;;;5153030;27;20043;-77
2023/06/13 11:35:16;;;;;;;4.53;2.10;;;;;;;;;;5154146;27;20035;-78
2023/06/13 11:37:48;;;;;;;6.20;2.17;;;;;;;;;;5135771;27;20054;-78
2023/06/13 11:40:26;;;;;;;5.97;2.17;;;;;;;;;;5135368;27;20122;-77
2023/06/13 11:42:53;;;;;;;6.28;2.00;;;;;;;;;;5117133;27;20502;-77
2023/06/13 11:45:23;;;;;;;10.05;2.17;;;;;;;;;;5135604;27;20054;-78
2023/06/13 11:47:57;;;;;;;5.32;1.85;;;;;;;;;;5154261;27;20399;-78
2023/06/13 11:50:27;;;;;;;5.88;1.85;;;;;;;;;;5154052;27;20043;-78
2023/06/13 11:53:03;;;;;;;5.70;2.13;;;;;;;;;;5154293;27;20091;-78
2023/06/13 11:55:29;;;;;;;7.32;2.17;;;;;;;;;;5153828;27;20096;-78
2023/06/13 11:57:56;;;;;;;4.60;2.08;;;;;;;;;;5153868;27;20042;-77
2023/06/13 12:00:26;;;;;;;5.18;2.00;;;;;;;;;;5153648;27;20046;-77
2023/06/13 12:02:53;;;;;;;4.70;2.05;;;;;;;;;;5153572;27;20054;-76
2023/06/13 12:05:19;;;;;;;5.18;2.00;;;;;;;;;;5153750;27;20399;-77
2023/06/13 12:07:45;;;;;;;5.03;2.10;;;;;;;;;;5133585;27;20063;-76
2023/06/13 12:10:15;;;;;;;6.60;2.05;;;;;;;;;;5134959;27;20164;-77
2023/06/13 12:12:42;;;;;;;4.82;1.85;;;;;;;;;;5135366;27;20051;-78
2023/06/13 12:15:13;;;;;;;6.57;2.35;;;;;;;;;;5153745;27;20095;-77
2023/06/13 12:17:59;;;;;;;4.97;1.88;;;;;;;;;;5152695;27;20448;-77
2023/06/13 12:20:36;;;;;;;6.40;2.00;;;;;;;;;;5153715;27;20047;-77
2023/06/13 12:23:02;;;;;;;6.15;2.15;;;;;;;;;;5153866;27;20052;-77
2023/06/13 12:25:30;;;;;;;4.63;2.00;;;;;;;;;;5153955;27;20034;-77
2023/06/13 12:27:58;;;;;;;9.23;2.00;;;;;;;;;;5153885;27;20047;-77
2023/06/13 12:30:24;;;;;;;5.80;2.10;;;;;;;;;;5135147;27;20047;-77
2023/06/13 12:32:56;;;;;;;4.32;2.15;;;;;;;;;;5133009;27;20126;-78
2023/06/13 12:35:24;;;;;;;5.60;2.38;;;;;;;;;;5152244;27;20570;-77
2023/06/13 12:37:59;;;;;;;8.52;2.15;;;;;;;;;;5132819;27;20039;-78
2023/06/13 12:40:38;;;;;;;3.80;1.90;;;;;;;;;;5152764;27;20437;-77
2023/06/13 12:43:04;;;;;;;7.40;2.38;;;;;;;;;;5153492;27;20053;-77
2023/06/13 12:45:30;;;;;;;6.38;2.22;;;;;;;;;;5153630;27;20488;-77
2023/06/13 12:47:57;;;;;;;5.13;2.20;;;;;;;;;;5153947;27;20047;-79
2023/06/13 12:50:24;;;;;;;4.05;2.20;;;;;;;;;;5157298;27;20042;-78
2023/06/13 12:52:50;;;;;;;5.68;2.20;;;;;;;;;;5137897;27;20042;-76
2023/06/13 12:55:24;;;;;;;6.13;1.98;;;;;;;;;;5156179;27;20046;-77
2023/06/13 12:57:52;;;;;;;7.15;2.25;;;;;;;;;;5157431;27;20115;-77
2023/06/13 13:00:22;;;;;;;8.88;2.38;;;;;;;;;;5156663;27;20494;-77
2023/06/13 13:02:48;;;;;;;4.43;1.98;;;;;;;;;;5157299;27;20136;-77
2023/06/13 13:05:14;;;;;;;5.80;2.30;;;;;;;;;;5157442;27;20034;-77
2023/06/13 13:07:40;;;;;;;6.22;2.30;;;;;;;;;;5156766;27;20182;-77
2023/06/13 13:10:08;;;;;;;6.05;2.20;;;;;;;;;;5138409;27;20050;-77
2023/06/13 13:12:35;;;;;;;5.78;2.40;;;;;;;;;;5157216;27;20047;-77
2023/06/13 13:15:01;;;;;;;4.85;2.20;;;;;;;;;;5156620;27;20045;-77
2023/06/13 13:17:27;;;;;;;5.25;2.33;;;;;;;;;;5138797;27;20129;-77
2023/06/13 13:19:53;;;;;;;7.63;2.10;;;;;;;;;;5138205;27;20046;-77
2023/06/13 13:22:22;;;;;;;6.70;2.30;;;;;;;;;;5156845;27;20051;-79
2023/06/13 13:24:48;;;;;;;7.47;2.40;;;;;;;;;;5120798;27;20126;-76
2023/06/13 13:27:15;;;;;;;6.10;2.47;;;;;;;;;;5157105;27;20046;-76
2023/06/13 13:29:41;;;;;;;5.63;2.33;;;;;;;;;;5157231;27;20085;-78
2023/06/13 13:32:08;;;;;;;7.95;2.78;;;;;;;;;;5156903;27;20433;-77
2023/06/13 13:34:34;;;;;;;5.07;2.42;;;;;;;;;;5138222;27;20069;-77
2023/06/13 13:37:00;;;;;;;5.90;2.60;;;;;;;;;;5156682;27;20038;-76
2023/06/13 13:39:26;;;;;;;7.25;2.47;;;;;;;;;;5137392;27;20054;-79
2023/06/13 13:41:52;;;;;;;4.45;2.40;;;;;;;;;;5155219;27;20189;-79
2023/06/13 13:44:18;;;;;;;4.65;2.30;;;;;;;;;;5136049;27;20117;-77
2023/06/13 13:46:45;;;;;;;8.05;2.47;;;;;;;;;;5137775;27;20050;-76
2023/06/13 13:49:11;;;;;;;7.05;2.50;;;;;;;;;;5156463;27;20118;-76
2023/06/13 13:51:37;;;;;;;7.63;2.60;;;;;;;;;;5156212;27;20043;-77
2023/06/13 13:54:05;;;;;;;5.78;2.70;;;;;;;;;;5155861;27;20487;-78
2023/06/13 13:56:31;;;;;;;6.93;2.67;;;;;;;;;;5156382;27;20046;-78
2023/06/13 13:58:57;;;;;;;6.95;2.38;;;;;;;;;;5137044;27;20049;-78
2023/06/13 14:01:24;;;;;;;5.53;2.40;;;;;;;;;;5135878;27;20403;-78
2023/06/13 14:03:50;;;;;;;7.78;2.50;;;;;;;;;;5155570;27;20141;-78
2023/06/13 14:06:16;;;;;;;7.25;2.50;;;;;;;;;;5155957;27;20043;-76
2023/06/13 14:08:42;;;;;;;3.97;2.50;;;;;;;;;;5136405;27;20083;-77
2023/06/13 14:11:08;;;;;;;8.57;2.78;;;;;;;;;;5136527;27;20156;-77
2023/06/13 14:13:34;;;;;;;3.65;2.20;;;;;;;;;;5136774;27;20089;-77
2023/06/13 14:16:00;;;;;;;4.97;2.75;;;;;;;;;;5155321;27;20063;-77
2023/06/13 14:18:26;;;;;;;6.65;2.40;;;;;;;;;;5155294;27;20046;-76
2023/06/13 14:20:53;;;;;;;8.23;2.45;;;;;;;;;;5136445;27;20057;-77
2023/06/13 14:23:20;;;;;;;5.85;2.60;;;;;;;;;;5136918;27;20468;-77
2023/06/13 14:25:46;;;;;;;5.88;2.53;;;;;;;;;;5119160;27;20042;-77
2023/06/13 14:28:13;;;;;;;6.38;2.40;;;;;;;;;;5136515;27;20052;-77
2023/06/13 14:30:39;;;;;;;4.55;2.42;;;;;;;;;;5154880;27;20057;-77
2023/06/13 14:33:05;;;;;;;8.25;2.50;;;;;;;;;;5136698;27;20046;-77
2023/06/13 14:35:32;;;;;;;8.02;2.42;;;;;;;;;;5136693;27;20071;-77
2023/06/13 14:37:58;;;;;;;5.38;2.50;;;;;;;;;;5154227;27;20039;-77
2023/06/13 14:40:24;;;;;;;6.03;2.40;;;;;;;;;;5104489;27;20050;-77
2023/06/13 14:42:50;;;;;;;5.20;2.50;;;;;;;;;;5134371;27;20043;-77
2023/06/13 14:45:16;;;;;;;4.68;2.25;;;;;;;;;;5115806;27;20043;-77